TAF KDPA
AMD KDPA 080305Z 0803/0824 18012KT P6SM BKN060 FM080500 20006KT P6SM BKN040 FM081700 30006KT P6SM FEW250 FM082200 35004KT P6SM FEW250=
METAR KDPA
WC KDPA
WS KDPA
WV KDPA